sensor_id;sensor_type;location;lat;lon;timestamp;pressure;altitude;pressure_sealevel;temperature;humidity
20444;BME280;10381;53.730;10.010;2023-07-31T00:03:38;98235.41;;;12.95;100.00
20444;BME280;10381;53.730;10.010;2023-07-31T00:07:39;98235.56;;;13.00;100.00
20444;BME280;10381;53.730;10.010;2023-07-31T00:11:39;98242.09;;;13.04;100.00
20444;BME280;10381;53.730;10.010;2023-07-31T00:15:39;98243.97;;;13.04;100.00
20444;BME280;10381;53.730;10.010;2023-07-31T00:19:39;98249.13;;;12.92;100.00
20444;BME280;10381;53.730;10.010;2023-07-31T00:23:40;98234.81;;;12.93;100.00
20444;BME280;10381;53.730;10.010;2023-07-31T00:27:40;98238.53;;;12.85;100.00
20444;BME280;10381;53.730;10.010;2023-07-31T00:31:44;98226.00;;;12.99;100.00
20444;BME280;10381;53.730;10.010;2023-07-31T00:35:44;98217.13;;;13.05;100.00
20444;BME280;10381;53.730;10.010;2023-07-31T00:39:44;98214.44;;;13.12;100.00
20444;BME280;10381;53.730;10.010;2023-07-31T00:43:45;98213.97;;;13.21;100.00
20444;BME280;10381;53.730;10.010;2023-07-31T00:47:45;98224.59;;;13.28;100.00
20444;BME280;10381;53.730;10.010;2023-07-31T00:51:45;98215.81;;;13.28;100.00
20444;BME280;10381;53.730;10.010;2023-07-31T00:55:46;98214.56;;;13.24;100.00
20444;BME280;10381;53.730;10.010;2023-07-31T00:59:47;98222.88;;;13.09;100.00
20444;BME280;10381;53.730;10.010;2023-07-31T01:03:48;98245.38;;;13.06;100.00
20444;BME280;10381;53.730;10.010;2023-07-31T01:07:49;98244.94;;;13.09;100.00
20444;BME280;10381;53.730;10.010;2023-07-31T01:11:53;98262.13;;;13.07;100.00
20444;BME280;10381;53.730;10.010;2023-07-31T01:15:56;98265.59;;;13.07;100.00
20444;BME280;10381;53.730;10.010;2023-07-31T01:20:00;98269.94;;;13.02;100.00
20444;BME280;10381;53.730;10.010;2023-07-31T01:29:08;98306.75;;;12.91;100.00
20444;BME280;10381;53.730;10.010;2023-07-31T01:33:10;98330.66;;;12.98;100.00
20444;BME280;10381;53.730;10.010;2023-07-31T01:37:10;98335.75;;;13.06;100.00
20444;BME280;10381;53.730;10.010;2023-07-31T01:41:11;98355.59;;;12.97;100.00
20444;BME280;10381;53.730;10.010;2023-07-31T01:45:11;98379.72;;;12.95;100.00
20444;BME280;10381;53.730;10.010;2023-07-31T01:49:12;98396.09;;;12.99;100.00
20444;BME280;10381;53.730;10.010;2023-07-31T01:53:12;98401.59;;;13.04;100.00
20444;BME280;10381;53.730;10.010;2023-07-31T01:57:13;98418.16;;;13.06;100.00
20444;BME280;10381;53.730;10.010;2023-07-31T02:01:13;98422.19;;;13.15;100.00
20444;BME280;10381;53.730;10.010;2023-07-31T02:05:14;98440.00;;;13.08;100.00
20444;BME280;10381;53.730;10.010;2023-07-31T02:09:14;98445.13;;;13.03;100.00
20444;BME280;10381;53.730;10.010;2023-07-31T02:13:14;98407.28;;;13.08;100.00
20444;BME280;10381;53.730;10.010;2023-07-31T02:17:14;98430.59;;;13.06;100.00
20444;BME280;10381;53.730;10.010;2023-07-31T02:21:15;98440.41;;;13.05;100.00
20444;BME280;10381;53.730;10.010;2023-07-31T02:25:15;98445.91;;;13.10;100.00
20444;BME280;10381;53.730;10.010;2023-07-31T02:29:15;98451.84;;;13.12;100.00
20444;BME280;10381;53.730;10.010;2023-07-31T02:33:15;98458.78;;;13.20;100.00
20444;BME280;10381;53.730;10.010;2023-07-31T02:37:19;98460.19;;;13.22;100.00
20444;BME280;10381;53.730;10.010;2023-07-31T02:41:19;98468.16;;;13.22;100.00
20444;BME280;10381;53.730;10.010;2023-07-31T02:45:19;98468.16;;;13.22;100.00
20444;BME280;10381;53.730;10.010;2023-07-31T02:49:19;98483.31;;;13.22;100.00
20444;BME280;10381;53.730;10.010;2023-07-31T02:53:20;98503.34;;;13.25;100.00
20444;BME280;10381;53.730;10.010;2023-07-31T02:57:20;98504.59;;;13.29;100.00
20444;BME280;10381;53.730;10.010;2023-07-31T03:01:20;98516.03;;;13.36;100.00
20444;BME280;10381;53.730;10.010;2023-07-31T03:05:21;98527.72;;;13.35;100.00
20444;BME280;10381;53.730;10.010;2023-07-31T03:09:21;98512.50;;;13.49;100.00
20444;BME280;10381;53.730;10.010;2023-07-31T03:13:21;98515.16;;;13.49;100.00
20444;BME280;10381;53.730;10.010;2023-07-31T03:17:21;98518.84;;;13.54;100.00
20444;BME280;10381;53.730;10.010;2023-07-31T03:21:22;98510.63;;;13.56;100.00
20444;BME280;10381;53.730;10.010;2023-07-31T03:25:22;98518.84;;;13.54;100.00
20444;BME280;10381;53.730;10.010;2023-07-31T03:29:22;98536.44;;;13.49;100.00
20444;BME280;10381;53.730;10.010;2023-07-31T03:33:23;98536.25;;;13.57;100.00
20444;BME280;10381;53.730;10.010;2023-07-31T03:37:23;98544.41;;;13.55;100.00
20444;BME280;10381;53.730;10.010;2023-07-31T03:41:23;98511.50;;;13.50;100.00
20444;BME280;10381;53.730;10.010;2023-07-31T03:45:23;98513.72;;;13.53;100.00
20444;BME280;10381;53.730;10.010;2023-07-31T03:49:24;98528.22;;;13.63;100.00
20444;BME280;10381;53.730;10.010;2023-07-31T03:53:24;98518.75;;;13.74;100.00
20444;BME280;10381;53.730;10.010;2023-07-31T03:57:24;98515.66;;;13.77;100.00
20444;BME280;10381;53.730;10.010;2023-07-31T04:01:26;98509.91;;;13.80;100.00
20444;BME280;10381;53.730;10.010;2023-07-31T04:05:26;98516.47;;;13.84;100.00
20444;BME280;10381;53.730;10.010;2023-07-31T04:09:27;98519.28;;;13.90;100.00
20444;BME280;10381;53.730;10.010;2023-07-31T04:13:29;98504.91;;;13.97;100.00
20444;BME280;10381;53.730;10.010;2023-07-31T04:17:29;98506.94;;;14.02;100.00
20444;BME280;10381;53.730;10.010;2023-07-31T04:21:29;98504.06;;;14.03;100.00
20444;BME280;10381;53.730;10.010;2023-07-31T04:25:30;98503.00;;;14.11;100.00
20444;BME280;10381;53.730;10.010;2023-07-31T04:29:31;98501.16;;;14.12;100.00
20444;BME280;10381;53.730;10.010;2023-07-31T04:33:32;98508.50;;;14.16;100.00
20444;BME280;10381;53.730;10.010;2023-07-31T04:37:32;98510.34;;;14.16;100.00
20444;BME280;10381;53.730;10.010;2023-07-31T04:41:33;98510.94;;;14.18;100.00
20444;BME280;10381;53.730;10.010;2023-07-31T04:45:33;98517.09;;;14.18;100.00
20444;BME280;10381;53.730;10.010;2023-07-31T04:49:33;98521.56;;;14.24;100.00
20444;BME280;10381;53.730;10.010;2023-07-31T04:53:34;98513.34;;;14.26;100.00
20444;BME280;10381;53.730;10.010;2023-07-31T04:57:34;98516.22;;;14.31;100.00
20444;BME280;10381;53.730;10.010;2023-07-31T05:01:34;98517.66;;;14.27;100.00
20444;BME280;10381;53.730;10.010;2023-07-31T05:05:35;98522.53;;;14.30;100.00
20444;BME280;10381;53.730;10.010;2023-07-31T05:09:36;98525.81;;;14.32;100.00
20444;BME280;10381;53.730;10.010;2023-07-31T05:13:36;98530.72;;;14.35;100.00
20444;BME280;10381;53.730;10.010;2023-07-31T05:17:36;98531.16;;;14.32;100.00
20444;BME280;10381;53.730;10.010;2023-07-31T05:21:36;98528.66;;;14.37;100.00
20444;BME280;10381;53.730;10.010;2023-07-31T05:25:37;98535.66;;;14.32;100.00
20444;BME280;10381;53.730;10.010;2023-07-31T05:29:40;98536.47;;;14.32;100.00
20444;BME280;10381;53.730;10.010;2023-07-31T05:33:40;98555.72;;;14.34;100.00
20444;BME280;10381;53.730;10.010;2023-07-31T05:37:41;98553.84;;;14.41;100.00
20444;BME280;10381;53.730;10.010;2023-07-31T05:41:41;98558.56;;;14.39;100.00
20444;BME280;10381;53.730;10.010;2023-07-31T05:45:42;98557.09;;;14.43;100.00
20444;BME280;10381;53.730;10.010;2023-07-31T05:49:43;98563.88;;;14.39;100.00
20444;BME280;10381;53.730;10.010;2023-07-31T05:53:44;98575.75;;;14.43;100.00
20444;BME280;10381;53.730;10.010;2023-07-31T05:57:44;98586.81;;;14.40;100.00
20444;BME280;10381;53.730;10.010;2023-07-31T06:01:45;98593.78;;;14.41;100.00
20444;BME280;10381;53.730;10.010;2023-07-31T06:05:46;98587.59;;;14.47;100.00
20444;BME280;10381;53.730;10.010;2023-07-31T06:09:46;98592.91;;;14.47;100.00
20444;BME280;10381;53.730;10.010;2023-07-31T06:13:46;98605.00;;;14.50;100.00
20444;BME280;10381;53.730;10.010;2023-07-31T06:17:48;98615.91;;;14.42;100.00
20444;BME280;10381;53.730;10.010;2023-07-31T06:21:48;98641.75;;;14.41;100.00
20444;BME280;10381;53.730;10.010;2023-07-31T06:25:48;98660.81;;;14.38;100.00
20444;BME280;10381;53.730;10.010;2023-07-31T06:29:55;98499.91;;;14.46;100.00
20444;BME280;10381;53.730;10.010;2023-07-31T06:33:56;98559.34;;;14.46;100.00
20444;BME280;10381;53.730;10.010;2023-07-31T06:37:56;98597.84;;;14.51;100.00
20444;BME280;10381;53.730;10.010;2023-07-31T06:41:56;98627.72;;;14.59;100.00
20444;BME280;10381;53.730;10.010;2023-07-31T06:45:56;98645.78;;;14.57;100.00
20444;BME280;10381;53.730;10.010;2023-07-31T06:49:57;98665.78;;;14.73;100.00
20444;BME280;10381;53.730;10.010;2023-07-31T06:53:58;98694.56;;;14.58;100.00
20444;BME280;10381;53.730;10.010;2023-07-31T06:57:58;98717.75;;;14.51;100.00
20444;BME280;10381;53.730;10.010;2023-07-31T07:01:58;98745.81;;;14.46;100.00
20444;BME280;10381;53.730;10.010;2023-07-31T07:05:58;98770.44;;;14.42;100.00
20444;BME280;10381;53.730;10.010;2023-07-31T07:09:59;98795.22;;;14.49;100.00
20444;BME280;10381;53.730;10.010;2023-07-31T07:13:59;98816.31;;;14.57;100.00
20444;BME280;10381;53.730;10.010;2023-07-31T07:18:00;98823.69;;;14.48;100.00
20444;BME280;10381;53.730;10.010;2023-07-31T07:22:00;98836.00;;;14.63;100.00
20444;BME280;10381;53.730;10.010;2023-07-31T07:26:02;98833.72;;;14.66;100.00
20444;BME280;10381;53.730;10.010;2023-07-31T07:30:03;98837.00;;;14.62;100.00
20444;BME280;10381;53.730;10.010;2023-07-31T07:34:03;98846.03;;;14.61;100.00
20444;BME280;10381;53.730;10.010;2023-07-31T07:38:04;98848.47;;;14.69;100.00
20444;BME280;10381;53.730;10.010;2023-07-31T07:42:04;98868.38;;;14.53;100.00
20444;BME280;10381;53.730;10.010;2023-07-31T07:46:04;98861.19;;;14.67;100.00
20444;BME280;10381;53.730;10.010;2023-07-31T07:50:05;98851.75;;;14.71;100.00
20444;BME280;10381;53.730;10.010;2023-07-31T07:54:05;98849.13;;;15.09;100.00
20444;BME280;10381;53.730;10.010;2023-07-31T07:58:06;98844.13;;;15.26;100.00
20444;BME280;10381;53.730;10.010;2023-07-31T08:02:06;98832.44;;;15.27;100.00
20444;BME280;10381;53.730;10.010;2023-07-31T08:06:06;98836.50;;;14.91;100.00
20444;BME280;10381;53.730;10.010;2023-07-31T08:10:09;98854.38;;;14.84;100.00
20444;BME280;10381;53.730;10.010;2023-07-31T08:14:09;98872.19;;;14.90;100.00
20444;BME280;10381;53.730;10.010;2023-07-31T08:18:10;98858.59;;;15.05;100.00
20444;BME280;10381;53.730;10.010;2023-07-31T08:22:11;98835.34;;;15.19;100.00
20444;BME280;10381;53.730;10.010;2023-07-31T08:26:19;98798.16;;;15.56;100.00
20444;BME280;10381;53.730;10.010;2023-07-31T08:30:19;98789.19;;;15.19;100.00
20444;BME280;10381;53.730;10.010;2023-07-31T08:34:19;98795.03;;;15.34;100.00
20444;BME280;10381;53.730;10.010;2023-07-31T08:38:20;98773.47;;;15.36;100.00
20444;BME280;10381;53.730;10.010;2023-07-31T08:42:21;98774.81;;;15.51;100.00
20444;BME280;10381;53.730;10.010;2023-07-31T08:46:21;98775.16;;;15.62;100.00
20444;BME280;10381;53.730;10.010;2023-07-31T08:50:22;98780.50;;;15.30;100.00
20444;BME280;10381;53.730;10.010;2023-07-31T08:54:22;98783.56;;;15.33;100.00
20444;BME280;10381;53.730;10.010;2023-07-31T08:58:23;98794.81;;;15.36;100.00
20444;BME280;10381;53.730;10.010;2023-07-31T09:02:26;98804.50;;;15.62;100.00
20444;BME280;10381;53.730;10.010;2023-07-31T09:06:30;98789.59;;;15.54;100.00
20444;BME280;10381;53.730;10.010;2023-07-31T09:10:31;98789.00;;;15.77;100.00
20444;BME280;10381;53.730;10.010;2023-07-31T09:14:32;98784.25;;;15.54;100.00
20444;BME280;10381;53.730;10.010;2023-07-31T09:18:53;98793.66;;;15.57;100.00
20444;BME280;10381;53.730;10.010;2023-07-31T09:22:54;98790.22;;;15.49;100.00
20444;BME280;10381;53.730;10.010;2023-07-31T09:26:56;98788.22;;;15.45;100.00
20444;BME280;10381;53.730;10.010;2023-07-31T09:30:57;98769.56;;;15.63;100.00
20444;BME280;10381;53.730;10.010;2023-07-31T09:34:57;98763.47;;;15.88;100.00
20444;BME280;10381;53.730;10.010;2023-07-31T09:39:03;98759.03;;;15.75;100.00
20444;BME280;10381;53.730;10.010;2023-07-31T09:43:08;98754.53;;;15.75;100.00
20444;BME280;10381;53.730;10.010;2023-07-31T09:47:23;98734.53;;;16.40;100.00
20444;BME280;10381;53.730;10.010;2023-07-31T09:51:26;98742.44;;;16.16;100.00
20444;BME280;10381;53.730;10.010;2023-07-31T09:55:28;98726.06;;;16.06;100.00
20444;BME280;10381;53.730;10.010;2023-07-31T09:59:29;98724.53;;;16.17;100.00
20444;BME280;10381;53.730;10.010;2023-07-31T10:03:31;98730.28;;;15.77;100.00
20444;BME280;10381;53.730;10.010;2023-07-31T10:07:36;98752.88;;;15.74;100.00
20444;BME280;10381;53.730;10.010;2023-07-31T10:11:45;98751.72;;;15.64;100.00
20444;BME280;10381;53.730;10.010;2023-07-31T10:15:50;98754.22;;;15.59;100.00
20444;BME280;10381;53.730;10.010;2023-07-31T10:19:51;98767.78;;;15.57;100.00
20444;BME280;10381;53.730;10.010;2023-07-31T10:23:53;98783.09;;;15.68;100.00
20444;BME280;10381;53.730;10.010;2023-07-31T10:27:55;98795.69;;;15.29;100.00
20444;BME280;10381;53.730;10.010;2023-07-31T10:31:57;98826.38;;;15.07;100.00
20444;BME280;10381;53.730;10.010;2023-07-31T10:36:30;98847.25;;;15.55;100.00
20444;BME280;10381;53.730;10.010;2023-07-31T10:40:31;98858.03;;;15.42;100.00
20444;BME280;10381;53.730;10.010;2023-07-31T10:44:31;98870.63;;;15.21;100.00
20444;BME280;10381;53.730;10.010;2023-07-31T10:48:33;98892.59;;;15.17;100.00
20444;BME280;10381;53.730;10.010;2023-07-31T10:52:34;98889.00;;;16.06;100.00
20444;BME280;10381;53.730;10.010;2023-07-31T10:56:37;98873.66;;;16.27;100.00
20444;BME280;10381;53.730;10.010;2023-07-31T11:00:43;98846.78;;;15.65;100.00
20444;BME280;10381;53.730;10.010;2023-07-31T11:04:44;98853.56;;;15.61;100.00
20444;BME280;10381;53.730;10.010;2023-07-31T11:08:46;98848.75;;;15.83;100.00
20444;BME280;10381;53.730;10.010;2023-07-31T11:12:47;98862.47;;;15.86;100.00
20444;BME280;10381;53.730;10.010;2023-07-31T11:16:50;98869.44;;;15.49;100.00
20444;BME280;10381;53.730;10.010;2023-07-31T11:20:50;98867.88;;;16.05;100.00
20444;BME280;10381;53.730;10.010;2023-07-31T11:24:51;98854.50;;;15.80;100.00
20444;BME280;10381;53.730;10.010;2023-07-31T11:28:52;98845.63;;;15.86;100.00
20444;BME280;10381;53.730;10.010;2023-07-31T11:32:52;98847.19;;;14.85;100.00
20444;BME280;10381;53.730;10.010;2023-07-31T11:36:54;98844.97;;;14.75;100.00
20444;BME280;10381;53.730;10.010;2023-07-31T11:40:58;98833.72;;;14.60;100.00
20444;BME280;10381;53.730;10.010;2023-07-31T11:45:02;98819.88;;;15.73;100.00
20444;BME280;10381;53.730;10.010;2023-07-31T11:49:02;98809.16;;;15.41;100.00
20444;BME280;10381;53.730;10.010;2023-07-31T11:53:06;98779.38;;;15.44;100.00
20444;BME280;10381;53.730;10.010;2023-07-31T11:57:07;98749.09;;;15.82;100.00
20444;BME280;10381;53.730;10.010;2023-07-31T12:01:08;98680.13;;;17.25;100.00
20444;BME280;10381;53.730;10.010;2023-07-31T12:05:13;98629.56;;;18.11;100.00
20444;BME280;10381;53.730;10.010;2023-07-31T12:09:16;98523.44;;;17.06;100.00
20444;BME280;10381;53.730;10.010;2023-07-31T12:13:25;98334.16;;;16.60;100.00
20444;BME280;10381;53.730;10.010;2023-07-31T12:17:29;98195.50;;;16.93;100.00
20444;BME280;10381;53.730;10.010;2023-07-31T12:21:29;98074.50;;;17.19;100.00
20444;BME280;10381;53.730;10.010;2023-07-31T12:25:31;98034.44;;;15.83;100.00
20444;BME280;10381;53.730;10.010;2023-07-31T12:29:35;98047.44;;;17.16;100.00
20444;BME280;10381;53.730;10.010;2023-07-31T12:33:40;98051.66;;;17.90;100.00
20444;BME280;10381;53.730;10.010;2023-07-31T12:37:41;98020.19;;;17.80;100.00
20444;BME280;10381;53.730;10.010;2023-07-31T12:41:41;98048.25;;;17.77;100.00
20444;BME280;10381;53.730;10.010;2023-07-31T12:45:41;98084.06;;;17.71;100.00
20444;BME280;10381;53.730;10.010;2023-07-31T12:49:42;98179.66;;;17.20;100.00
20444;BME280;10381;53.730;10.010;2023-07-31T12:53:42;98143.50;;;17.17;100.00
20444;BME280;10381;53.730;10.010;2023-07-31T12:57:42;98128.00;;;17.02;100.00
20444;BME280;10381;53.730;10.010;2023-07-31T13:01:42;98130.13;;;16.72;100.00
20444;BME280;10381;53.730;10.010;2023-07-31T13:05:43;98127.25;;;16.33;100.00
20444;BME280;10381;53.730;10.010;2023-07-31T13:09:43;98179.28;;;15.90;100.00
20444;BME280;10381;53.730;10.010;2023-07-31T13:13:44;98303.16;;;16.01;100.00
20444;BME280;10381;53.730;10.010;2023-07-31T13:17:45;98577.16;;;16.20;100.00
20444;BME280;10381;53.730;10.010;2023-07-31T13:21:45;98626.56;;;16.29;100.00
20444;BME280;10381;53.730;10.010;2023-07-31T13:25:46;98646.75;;;16.25;100.00
20444;BME280;10381;53.730;10.010;2023-07-31T13:29:50;98659.22;;;16.31;100.00
20444;BME280;10381;53.730;10.010;2023-07-31T13:33:51;98636.16;;;16.49;100.00
20444;BME280;10381;53.730;10.010;2023-07-31T13:37:51;98648.41;;;16.08;100.00
20444;BME280;10381;53.730;10.010;2023-07-31T13:41:51;98701.56;;;15.72;100.00
20444;BME280;10381;53.730;10.010;2023-07-31T13:45:51;98743.84;;;15.75;100.00
20444;BME280;10381;53.730;10.010;2023-07-31T13:49:52;98756.25;;;15.88;100.00
20444;BME280;10381;53.730;10.010;2023-07-31T13:53:52;98748.25;;;15.88;100.00
20444;BME280;10381;53.730;10.010;2023-07-31T13:57:52;98747.81;;;15.66;100.00
20444;BME280;10381;53.730;10.010;2023-07-31T14:01:53;98780.38;;;15.50;100.00
20444;BME280;10381;53.730;10.010;2023-07-31T14:05:54;98844.06;;;15.40;100.00
20444;BME280;10381;53.730;10.010;2023-07-31T14:09:55;98867.22;;;15.46;100.00
20444;BME280;10381;53.730;10.010;2023-07-31T14:13:55;98909.06;;;15.52;100.00
20444;BME280;10381;53.730;10.010;2023-07-31T14:17:56;98934.72;;;15.53;100.00
20444;BME280;10381;53.730;10.010;2023-07-31T14:21:58;98936.88;;;15.83;100.00
20444;BME280;10381;53.730;10.010;2023-07-31T14:25:58;98935.47;;;16.05;100.00
20444;BME280;10381;53.730;10.010;2023-07-31T14:29:59;98921.22;;;16.11;100.00
20444;BME280;10381;53.730;10.010;2023-07-31T14:33:59;98907.69;;;15.81;100.00
20444;BME280;10381;53.730;10.010;2023-07-31T14:37:59;98915.03;;;15.54;100.00
20444;BME280;10381;53.730;10.010;2023-07-31T14:42:00;98935.00;;;15.38;100.00
20444;BME280;10381;53.730;10.010;2023-07-31T14:46:00;98932.28;;;15.51;100.00
20444;BME280;10381;53.730;10.010;2023-07-31T14:50:00;98934.06;;;15.64;100.00
20444;BME280;10381;53.730;10.010;2023-07-31T14:54:01;98921.47;;;15.78;100.00
20444;BME280;10381;53.730;10.010;2023-07-31T14:58:01;98907.41;;;16.21;100.00
20444;BME280;10381;53.730;10.010;2023-07-31T15:02:03;98889.53;;;16.40;100.00
20444;BME280;10381;53.730;10.010;2023-07-31T15:06:03;98863.94;;;16.07;100.00
20444;BME280;10381;53.730;10.010;2023-07-31T15:10:06;98866.66;;;15.75;100.00
20444;BME280;10381;53.730;10.010;2023-07-31T15:14:07;98885.16;;;15.70;100.00
20444;BME280;10381;53.730;10.010;2023-07-31T15:18:07;98869.66;;;15.54;100.00
20444;BME280;10381;53.730;10.010;2023-07-31T15:22:07;98861.34;;;15.69;100.00
20444;BME280;10381;53.730;10.010;2023-07-31T15:26:08;98868.59;;;15.55;100.00
20444;BME280;10381;53.730;10.010;2023-07-31T15:30:09;98883.06;;;15.41;100.00
20444;BME280;10381;53.730;10.010;2023-07-31T15:34:09;98875.91;;;15.34;100.00
20444;BME280;10381;53.730;10.010;2023-07-31T15:38:10;98878.03;;;15.19;100.00
20444;BME280;10381;53.730;10.010;2023-07-31T15:42:10;98884.22;;;15.13;100.00
20444;BME280;10381;53.730;10.010;2023-07-31T15:46:11;98900.75;;;15.35;100.00
20444;BME280;10381;53.730;10.010;2023-07-31T15:50:12;98897.31;;;15.60;100.00
20444;BME280;10381;53.730;10.010;2023-07-31T15:54:12;98891.94;;;15.66;100.00
20444;BME280;10381;53.730;10.010;2023-07-31T15:58:13;98876.31;;;15.76;100.00
20444;BME280;10381;53.730;10.010;2023-07-31T16:02:13;98868.41;;;15.57;100.00
20444;BME280;10381;53.730;10.010;2023-07-31T16:06:13;98856.94;;;15.49;100.00
20444;BME280;10381;53.730;10.010;2023-07-31T16:10:14;98844.06;;;15.78;100.00
20444;BME280;10381;53.730;10.010;2023-07-31T16:14:14;98826.97;;;15.79;100.00
20444;BME280;10381;53.730;10.010;2023-07-31T16:18:14;98818.78;;;15.81;100.00
20444;BME280;10381;53.730;10.010;2023-07-31T16:22:15;98812.50;;;15.62;100.00
20444;BME280;10381;53.730;10.010;2023-07-31T16:26:15;98821.25;;;15.44;100.00
20444;BME280;10381;53.730;10.010;2023-07-31T16:30:15;98812.56;;;15.55;100.00
20444;BME280;10381;53.730;10.010;2023-07-31T16:34:16;98819.88;;;15.66;100.00
20444;BME280;10381;53.730;10.010;2023-07-31T16:38:16;98825.41;;;15.40;100.00
20444;BME280;10381;53.730;10.010;2023-07-31T16:42:17;98825.88;;;15.30;100.00
20444;BME280;10381;53.730;10.010;2023-07-31T16:46:17;98829.09;;;15.32;100.00
20444;BME280;10381;53.730;10.010;2023-07-31T16:50:18;98825.72;;;15.50;100.00
20444;BME280;10381;53.730;10.010;2023-07-31T16:54:18;98824.47;;;15.52;100.00
20444;BME280;10381;53.730;10.010;2023-07-31T16:58:18;98830.16;;;15.63;100.00
20444;BME280;10381;53.730;10.010;2023-07-31T17:02:19;98822.53;;;15.66;100.00
20444;BME280;10381;53.730;10.010;2023-07-31T17:06:19;98821.50;;;15.67;100.00
20444;BME280;10381;53.730;10.010;2023-07-31T17:10:19;98801.03;;;15.61;100.00
20444;BME280;10381;53.730;10.010;2023-07-31T17:14:19;98785.38;;;15.71;100.00
20444;BME280;10381;53.730;10.010;2023-07-31T17:18:20;98784.56;;;15.71;100.00
20444;BME280;10381;53.730;10.010;2023-07-31T17:22:20;98784.25;;;15.54;100.00
20444;BME280;10381;53.730;10.010;2023-07-31T17:26:22;98782.16;;;15.56;100.00
20444;BME280;10381;53.730;10.010;2023-07-31T17:30:22;98769.00;;;15.86;100.00
20444;BME280;10381;53.730;10.010;2023-07-31T17:34:22;98759.69;;;15.95;100.00
20444;BME280;10381;53.730;10.010;2023-07-31T17:38:23;98753.09;;;15.98;100.00
20444;BME280;10381;53.730;10.010;2023-07-31T17:42:23;98752.47;;;15.96;100.00
20444;BME280;10381;53.730;10.010;2023-07-31T17:46:23;98749.38;;;15.99;100.00
20444;BME280;10381;53.730;10.010;2023-07-31T17:50:24;98742.75;;;16.02;100.00
20444;BME280;10381;53.730;10.010;2023-07-31T17:54:24;98746.03;;;16.04;100.00
20444;BME280;10381;53.730;10.010;2023-07-31T17:58:25;98743.91;;;16.12;100.00
20444;BME280;10381;53.730;10.010;2023-07-31T18:02:25;98717.34;;;16.17;100.00
20444;BME280;10381;53.730;10.010;2023-07-31T18:06:26;98688.53;;;16.19;100.00
20444;BME280;10381;53.730;10.010;2023-07-31T18:10:26;98672.66;;;16.25;100.00
20444;BME280;10381;53.730;10.010;2023-07-31T18:14:26;98659.88;;;16.27;100.00
20444;BME280;10381;53.730;10.010;2023-07-31T18:18:28;98645.72;;;16.26;100.00
20444;BME280;10381;53.730;10.010;2023-07-31T18:22:28;98625.50;;;16.30;100.00
20444;BME280;10381;53.730;10.010;2023-07-31T18:26:28;98610.88;;;16.33;100.00
20444;BME280;10381;53.730;10.010;2023-07-31T18:30:28;98568.97;;;16.33;100.00
20444;BME280;10381;53.730;10.010;2023-07-31T18:34:29;98555.34;;;16.35;100.00
20444;BME280;10381;53.730;10.010;2023-07-31T18:38:30;98519.59;;;16.36;100.00
20444;BME280;10381;53.730;10.010;2023-07-31T18:42:32;98491.00;;;16.36;100.00
20444;BME280;10381;53.730;10.010;2023-07-31T18:46:32;98468.34;;;16.39;100.00
20444;BME280;10381;53.730;10.010;2023-07-31T18:50:32;98441.63;;;16.39;100.00
20444;BME280;10381;53.730;10.010;2023-07-31T18:54:32;98405.28;;;16.38;100.00
20444;BME280;10381;53.730;10.010;2023-07-31T18:58:33;98362.53;;;16.38;100.00
20444;BME280;10381;53.730;10.010;2023-07-31T19:02:33;98332.88;;;16.39;100.00
20444;BME280;10381;53.730;10.010;2023-07-31T19:06:33;98307.44;;;16.37;100.00
20444;BME280;10381;53.730;10.010;2023-07-31T19:10:35;98286.53;;;16.34;100.00
20444;BME280;10381;53.730;10.010;2023-07-31T19:14:36;98283.06;;;16.33;100.00
20444;BME280;10381;53.730;10.010;2023-07-31T19:18:36;98322.66;;;16.36;100.00
20444;BME280;10381;53.730;10.010;2023-07-31T19:22:36;98305.81;;;16.36;100.00
20444;BME280;10381;53.730;10.010;2023-07-31T19:26:37;98281.41;;;16.32;100.00
20444;BME280;10381;53.730;10.010;2023-07-31T19:30:37;98270.84;;;16.37;100.00
20444;BME280;10381;53.730;10.010;2023-07-31T19:34:37;98253.91;;;16.32;100.00
20444;BME280;10381;53.730;10.010;2023-07-31T19:38:37;98219.97;;;16.32;100.00
20444;BME280;10381;53.730;10.010;2023-07-31T19:42:38;98204.41;;;16.29;100.00
20444;BME280;10381;53.730;10.010;2023-07-31T19:46:38;98198.50;;;16.27;100.00
20444;BME280;10381;53.730;10.010;2023-07-31T19:50:39;98168.31;;;16.27;100.00
20444;BME280;10381;53.730;10.010;2023-07-31T19:54:39;98149.03;;;16.25;100.00
20444;BME280;10381;53.730;10.010;2023-07-31T19:58:40;98120.91;;;16.22;100.00
20444;BME280;10381;53.730;10.010;2023-07-31T20:02:40;98110.81;;;16.24;100.00
20444;BME280;10381;53.730;10.010;2023-07-31T20:06:40;98095.81;;;16.23;100.00
20444;BME280;10381;53.730;10.010;2023-07-31T20:10:41;98052.03;;;16.24;100.00
20444;BME280;10381;53.730;10.010;2023-07-31T20:14:41;98013.84;;;16.24;100.00
20444;BME280;10381;53.730;10.010;2023-07-31T20:18:41;97931.03;;;16.24;100.00
20444;BME280;10381;53.730;10.010;2023-07-31T20:22:43;97950.19;;;16.21;100.00
20444;BME280;10381;53.730;10.010;2023-07-31T20:26:44;97948.81;;;16.18;100.00
20444;BME280;10381;53.730;10.010;2023-07-31T20:30:44;97943.75;;;16.16;100.00
20444;BME280;10381;53.730;10.010;2023-07-31T20:34:45;97931.41;;;16.15;100.00
20444;BME280;10381;53.730;10.010;2023-07-31T20:38:45;97912.97;;;16.14;100.00
20444;BME280;10381;53.730;10.010;2023-07-31T20:42:55;97884.63;;;16.13;100.00
20444;BME280;10381;53.730;10.010;2023-07-31T20:46:56;97882.47;;;16.10;100.00
20444;BME280;10381;53.730;10.010;2023-07-31T20:51:00;97861.31;;;16.08;100.00